sensor_id;sensor_type;location;lat;lon;timestamp;P1;durP1;ratioP1;P2;durP2;ratioP2
13566;SDS011;6855;48.112;11.298;2022-10-16T00:01:22;1.93;;;1.23;;
13566;SDS011;6855;48.112;11.298;2022-10-16T00:03:54;1.87;;;1.40;;
13566;SDS011;6855;48.112;11.298;2022-10-16T00:06:25;3.73;;;1.30;;
13566;SDS011;6855;48.112;11.298;2022-10-16T00:08:52;3.90;;;1.30;;
13566;SDS011;6855;48.112;11.298;2022-10-16T00:11:19;7.30;;;1.37;;
13566;SDS011;6855;48.112;11.298;2022-10-16T00:13:47;4.60;;;1.33;;
13566;SDS011;6855;48.112;11.298;2022-10-16T00:16:15;4.43;;;1.00;;
13566;SDS011;6855;48.112;11.298;2022-10-16T00:18:42;1.30;;;1.10;;
13566;SDS011;6855;48.112;11.298;2022-10-16T00:21:12;2.40;;;1.20;;
13566;SDS011;6855;48.112;11.298;2022-10-16T00:23:39;4.70;;;1.10;;
13566;SDS011;6855;48.112;11.298;2022-10-16T00:26:08;21.53;;;2.03;;
13566;SDS011;6855;48.112;11.298;2022-10-16T00:28:35;2.70;;;1.07;;
13566;SDS011;6855;48.112;11.298;2022-10-16T00:31:03;3.33;;;1.40;;
13566;SDS011;6855;48.112;11.298;2022-10-16T00:33:31;2.40;;;1.10;;
13566;SDS011;6855;48.112;11.298;2022-10-16T00:35:58;3.03;;;1.00;;
13566;SDS011;6855;48.112;11.298;2022-10-16T00:38:26;1.57;;;1.00;;
13566;SDS011;6855;48.112;11.298;2022-10-16T00:40:54;5.20;;;2.00;;
13566;SDS011;6855;48.112;11.298;2022-10-16T00:43:35;4.77;;;2.20;;
13566;SDS011;6855;48.112;11.298;2022-10-16T00:46:04;3.37;;;1.53;;
13566;SDS011;6855;48.112;11.298;2022-10-16T00:48:32;1.43;;;1.10;;
13566;SDS011;6855;48.112;11.298;2022-10-16T00:50:59;5.73;;;1.33;;
13566;SDS011;6855;48.112;11.298;2022-10-16T00:53:27;4.67;;;1.27;;
13566;SDS011;6855;48.112;11.298;2022-10-16T00:55:55;3.70;;;1.63;;
13566;SDS011;6855;48.112;11.298;2022-10-16T00:58:22;1.60;;;1.30;;
13566;SDS011;6855;48.112;11.298;2022-10-16T01:00:49;4.17;;;1.20;;
13566;SDS011;6855;48.112;11.298;2022-10-16T01:03:23;1.87;;;1.07;;
13566;SDS011;6855;48.112;11.298;2022-10-16T01:05:51;2.50;;;1.20;;
13566;SDS011;6855;48.112;11.298;2022-10-16T01:08:23;2.30;;;1.20;;
13566;SDS011;6855;48.112;11.298;2022-10-16T01:10:57;3.00;;;1.60;;
13566;SDS011;6855;48.112;11.298;2022-10-16T01:13:27;2.73;;;1.07;;
13566;SDS011;6855;48.112;11.298;2022-10-16T01:16:00;3.80;;;1.50;;
13566;SDS011;6855;48.112;11.298;2022-10-16T01:18:30;2.10;;;1.70;;
13566;SDS011;6855;48.112;11.298;2022-10-16T01:21:01;4.70;;;2.03;;
13566;SDS011;6855;48.112;11.298;2022-10-16T01:23:34;4.10;;;1.60;;
13566;SDS011;6855;48.112;11.298;2022-10-16T01:26:17;3.00;;;1.83;;
13566;SDS011;6855;48.112;11.298;2022-10-16T01:28:50;2.57;;;1.70;;
13566;SDS011;6855;48.112;11.298;2022-10-16T01:31:18;3.43;;;1.73;;
13566;SDS011;6855;48.112;11.298;2022-10-16T01:33:47;6.57;;;2.10;;
13566;SDS011;6855;48.112;11.298;2022-10-16T01:36:16;7.00;;;1.60;;
13566;SDS011;6855;48.112;11.298;2022-10-16T01:38:44;1.10;;;1.00;;
13566;SDS011;6855;48.112;11.298;2022-10-16T01:41:14;2.53;;;1.53;;
13566;SDS011;6855;48.112;11.298;2022-10-16T01:43:43;12.03;;;1.30;;
13566;SDS011;6855;48.112;11.298;2022-10-16T01:46:13;2.10;;;1.57;;
13566;SDS011;6855;48.112;11.298;2022-10-16T01:48:43;1.70;;;1.60;;
13566;SDS011;6855;48.112;11.298;2022-10-16T01:51:12;1.60;;;1.47;;
13566;SDS011;6855;48.112;11.298;2022-10-16T01:53:39;4.30;;;1.40;;
13566;SDS011;6855;48.112;11.298;2022-10-16T01:56:09;2.37;;;1.70;;
13566;SDS011;6855;48.112;11.298;2022-10-16T01:58:37;3.53;;;1.50;;
13566;SDS011;6855;48.112;11.298;2022-10-16T02:01:07;6.83;;;1.80;;
13566;SDS011;6855;48.112;11.298;2022-10-16T02:03:36;2.60;;;1.40;;
13566;SDS011;6855;48.112;11.298;2022-10-16T02:06:04;11.00;;;1.50;;
13566;SDS011;6855;48.112;11.298;2022-10-16T02:08:32;4.80;;;1.63;;
13566;SDS011;6855;48.112;11.298;2022-10-16T02:10:59;2.20;;;1.40;;
13566;SDS011;6855;48.112;11.298;2022-10-16T02:13:27;2.73;;;1.53;;
13566;SDS011;6855;48.112;11.298;2022-10-16T02:15:57;2.67;;;1.30;;
13566;SDS011;6855;48.112;11.298;2022-10-16T02:18:25;1.70;;;1.50;;
13566;SDS011;6855;48.112;11.298;2022-10-16T02:20:57;6.13;;;1.77;;
13566;SDS011;6855;48.112;11.298;2022-10-16T02:23:27;1.53;;;1.40;;
13566;SDS011;6855;48.112;11.298;2022-10-16T02:25:56;1.50;;;1.40;;
13566;SDS011;6855;48.112;11.298;2022-10-16T02:28:26;1.70;;;1.40;;
13566;SDS011;6855;48.112;11.298;2022-10-16T02:30:55;6.93;;;2.07;;
13566;SDS011;6855;48.112;11.298;2022-10-16T02:33:23;2.30;;;1.70;;
13566;SDS011;6855;48.112;11.298;2022-10-16T02:35:51;2.73;;;1.50;;
13566;SDS011;6855;48.112;11.298;2022-10-16T02:38:20;4.20;;;1.63;;
13566;SDS011;6855;48.112;11.298;2022-10-16T02:40:48;2.20;;;1.60;;
13566;SDS011;6855;48.112;11.298;2022-10-16T02:43:15;2.00;;;1.47;;
13566;SDS011;6855;48.112;11.298;2022-10-16T02:45:42;2.00;;;1.30;;
13566;SDS011;6855;48.112;11.298;2022-10-16T02:48:10;2.90;;;1.60;;
13566;SDS011;6855;48.112;11.298;2022-10-16T02:50:37;1.43;;;1.20;;
13566;SDS011;6855;48.112;11.298;2022-10-16T02:53:04;6.53;;;1.63;;
13566;SDS011;6855;48.112;11.298;2022-10-16T02:55:32;1.47;;;1.13;;
13566;SDS011;6855;48.112;11.298;2022-10-16T02:58:00;4.27;;;1.67;;
13566;SDS011;6855;48.112;11.298;2022-10-16T03:00:27;1.60;;;1.50;;
13566;SDS011;6855;48.112;11.298;2022-10-16T03:02:54;3.90;;;1.57;;
13566;SDS011;6855;48.112;11.298;2022-10-16T03:05:21;2.03;;;1.70;;
13566;SDS011;6855;48.112;11.298;2022-10-16T03:07:48;7.90;;;1.43;;
13566;SDS011;6855;48.112;11.298;2022-10-16T03:10:17;3.50;;;1.67;;
13566;SDS011;6855;48.112;11.298;2022-10-16T03:12:46;1.83;;;1.73;;
13566;SDS011;6855;48.112;11.298;2022-10-16T03:15:13;2.50;;;1.70;;
13566;SDS011;6855;48.112;11.298;2022-10-16T03:17:40;2.90;;;1.67;;
13566;SDS011;6855;48.112;11.298;2022-10-16T03:20:08;2.67;;;1.70;;
13566;SDS011;6855;48.112;11.298;2022-10-16T03:22:35;7.80;;;2.53;;
13566;SDS011;6855;48.112;11.298;2022-10-16T03:25:02;7.90;;;2.30;;
13566;SDS011;6855;48.112;11.298;2022-10-16T03:27:30;2.70;;;1.87;;
13566;SDS011;6855;48.112;11.298;2022-10-16T03:29:58;2.03;;;1.83;;
13566;SDS011;6855;48.112;11.298;2022-10-16T03:32:26;1.90;;;1.70;;
13566;SDS011;6855;48.112;11.298;2022-10-16T03:34:53;2.10;;;1.70;;
13566;SDS011;6855;48.112;11.298;2022-10-16T03:37:22;2.10;;;1.63;;
13566;SDS011;6855;48.112;11.298;2022-10-16T03:39:49;2.70;;;1.60;;
13566;SDS011;6855;48.112;11.298;2022-10-16T03:42:16;3.03;;;1.80;;
13566;SDS011;6855;48.112;11.298;2022-10-16T03:44:43;4.00;;;1.80;;
13566;SDS011;6855;48.112;11.298;2022-10-16T03:47:12;2.87;;;1.80;;
13566;SDS011;6855;48.112;11.298;2022-10-16T03:49:39;2.50;;;1.80;;
13566;SDS011;6855;48.112;11.298;2022-10-16T03:52:06;2.17;;;1.90;;
13566;SDS011;6855;48.112;11.298;2022-10-16T03:54:33;2.40;;;1.80;;
13566;SDS011;6855;48.112;11.298;2022-10-16T03:57:00;2.00;;;1.70;;
13566;SDS011;6855;48.112;11.298;2022-10-16T03:59:27;3.13;;;2.20;;
13566;SDS011;6855;48.112;11.298;2022-10-16T04:01:55;2.17;;;1.90;;
13566;SDS011;6855;48.112;11.298;2022-10-16T04:04:23;2.13;;;1.90;;
13566;SDS011;6855;48.112;11.298;2022-10-16T04:06:50;3.10;;;1.60;;
13566;SDS011;6855;48.112;11.298;2022-10-16T04:09:17;3.07;;;1.70;;
13566;SDS011;6855;48.112;11.298;2022-10-16T04:11:45;2.83;;;1.40;;
13566;SDS011;6855;48.112;11.298;2022-10-16T04:14:12;1.40;;;1.30;;
13566;SDS011;6855;48.112;11.298;2022-10-16T04:16:39;3.00;;;1.73;;
13566;SDS011;6855;48.112;11.298;2022-10-16T04:19:06;1.93;;;1.50;;
13566;SDS011;6855;48.112;11.298;2022-10-16T04:21:35;2.43;;;1.80;;
13566;SDS011;6855;48.112;11.298;2022-10-16T04:24:02;2.90;;;1.77;;
13566;SDS011;6855;48.112;11.298;2022-10-16T04:26:29;3.10;;;1.70;;
13566;SDS011;6855;48.112;11.298;2022-10-16T04:28:56;5.33;;;1.73;;
13566;SDS011;6855;48.112;11.298;2022-10-16T04:31:24;2.50;;;1.73;;
13566;SDS011;6855;48.112;11.298;2022-10-16T04:33:51;2.33;;;1.70;;
13566;SDS011;6855;48.112;11.298;2022-10-16T04:36:18;2.40;;;2.07;;
13566;SDS011;6855;48.112;11.298;2022-10-16T04:38:47;4.30;;;1.77;;
13566;SDS011;6855;48.112;11.298;2022-10-16T04:41:14;1.57;;;1.43;;
13566;SDS011;6855;48.112;11.298;2022-10-16T04:43:41;2.30;;;1.73;;
13566;SDS011;6855;48.112;11.298;2022-10-16T04:46:08;1.83;;;1.60;;
13566;SDS011;6855;48.112;11.298;2022-10-16T04:48:35;2.37;;;1.50;;
13566;SDS011;6855;48.112;11.298;2022-10-16T04:51:02;2.10;;;1.60;;
13566;SDS011;6855;48.112;11.298;2022-10-16T04:53:30;1.60;;;1.40;;
13566;SDS011;6855;48.112;11.298;2022-10-16T04:55:58;1.80;;;1.50;;
13566;SDS011;6855;48.112;11.298;2022-10-16T04:58:25;2.00;;;1.80;;
13566;SDS011;6855;48.112;11.298;2022-10-16T05:00:53;2.10;;;1.67;;
13566;SDS011;6855;48.112;11.298;2022-10-16T05:03:20;1.85;;;1.38;;
13566;SDS011;6855;48.112;11.298;2022-10-16T05:05:47;2.13;;;1.58;;
13566;SDS011;6855;48.112;11.298;2022-10-16T05:08:15;3.30;;;1.60;;
13566;SDS011;6855;48.112;11.298;2022-10-16T05:10:42;2.13;;;2.00;;
13566;SDS011;6855;48.112;11.298;2022-10-16T05:13:11;2.57;;;1.50;;
13566;SDS011;6855;48.112;11.298;2022-10-16T05:15:39;2.90;;;1.70;;
13566;SDS011;6855;48.112;11.298;2022-10-16T05:18:06;6.10;;;1.60;;
13566;SDS011;6855;48.112;11.298;2022-10-16T05:20:33;2.53;;;2.00;;
13566;SDS011;6855;48.112;11.298;2022-10-16T05:23:00;4.33;;;1.33;;
13566;SDS011;6855;48.112;11.298;2022-10-16T05:25:27;2.23;;;1.67;;
13566;SDS011;6855;48.112;11.298;2022-10-16T05:27:54;6.50;;;1.70;;
13566;SDS011;6855;48.112;11.298;2022-10-16T05:30:23;2.17;;;1.83;;
13566;SDS011;6855;48.112;11.298;2022-10-16T05:32:50;1.97;;;1.70;;
13566;SDS011;6855;48.112;11.298;2022-10-16T05:35:18;1.90;;;1.70;;
13566;SDS011;6855;48.112;11.298;2022-10-16T05:37:45;2.93;;;2.00;;
13566;SDS011;6855;48.112;11.298;2022-10-16T05:40:12;2.20;;;1.90;;
13566;SDS011;6855;48.112;11.298;2022-10-16T05:42:39;3.07;;;2.07;;
13566;SDS011;6855;48.112;11.298;2022-10-16T05:45:08;4.20;;;2.07;;
13566;SDS011;6855;48.112;11.298;2022-10-16T05:47:37;2.80;;;1.97;;
13566;SDS011;6855;48.112;11.298;2022-10-16T05:50:05;2.10;;;1.90;;
13566;SDS011;6855;48.112;11.298;2022-10-16T05:52:32;5.77;;;2.20;;
13566;SDS011;6855;48.112;11.298;2022-10-16T05:54:59;3.90;;;1.83;;
13566;SDS011;6855;48.112;11.298;2022-10-16T05:57:26;2.30;;;2.10;;
13566;SDS011;6855;48.112;11.298;2022-10-16T05:59:53;2.37;;;2.03;;
13566;SDS011;6855;48.112;11.298;2022-10-16T06:02:20;4.63;;;2.50;;
13566;SDS011;6855;48.112;11.298;2022-10-16T06:04:49;1.87;;;1.67;;
13566;SDS011;6855;48.112;11.298;2022-10-16T06:07:19;2.60;;;1.53;;
13566;SDS011;6855;48.112;11.298;2022-10-16T06:09:47;2.60;;;2.07;;
13566;SDS011;6855;48.112;11.298;2022-10-16T06:12:14;2.60;;;2.20;;
13566;SDS011;6855;48.112;11.298;2022-10-16T06:14:42;1.50;;;1.40;;
13566;SDS011;6855;48.112;11.298;2022-10-16T06:17:09;2.70;;;1.90;;
13566;SDS011;6855;48.112;11.298;2022-10-16T06:19:36;2.87;;;2.10;;
13566;SDS011;6855;48.112;11.298;2022-10-16T06:22:04;4.20;;;1.97;;
13566;SDS011;6855;48.112;11.298;2022-10-16T06:24:32;6.20;;;2.57;;
13566;SDS011;6855;48.112;11.298;2022-10-16T06:26:59;2.67;;;1.97;;
13566;SDS011;6855;48.112;11.298;2022-10-16T06:29:26;1.97;;;1.80;;
13566;SDS011;6855;48.112;11.298;2022-10-16T06:31:53;3.87;;;2.13;;
13566;SDS011;6855;48.112;11.298;2022-10-16T06:34:20;2.83;;;2.20;;
13566;SDS011;6855;48.112;11.298;2022-10-16T06:36:47;7.13;;;2.43;;
13566;SDS011;6855;48.112;11.298;2022-10-16T06:39:16;2.80;;;2.27;;
13566;SDS011;6855;48.112;11.298;2022-10-16T06:41:43;4.53;;;2.90;;
13566;SDS011;6855;48.112;11.298;2022-10-16T06:44:10;4.83;;;2.60;;
13566;SDS011;6855;48.112;11.298;2022-10-16T06:46:37;3.90;;;1.87;;
13566;SDS011;6855;48.112;11.298;2022-10-16T06:49:04;5.53;;;1.93;;
13566;SDS011;6855;48.112;11.298;2022-10-16T06:51:32;5.33;;;2.20;;
13566;SDS011;6855;48.112;11.298;2022-10-16T06:54:01;4.07;;;2.60;;
13566;SDS011;6855;48.112;11.298;2022-10-16T06:56:30;5.43;;;2.30;;
13566;SDS011;6855;48.112;11.298;2022-10-16T06:58:57;1.73;;;1.60;;
13566;SDS011;6855;48.112;11.298;2022-10-16T07:01:25;7.13;;;2.70;;
13566;SDS011;6855;48.112;11.298;2022-10-16T07:03:52;6.80;;;3.07;;
13566;SDS011;6855;48.112;11.298;2022-10-16T07:06:20;2.90;;;2.47;;
13566;SDS011;6855;48.112;11.298;2022-10-16T07:08:47;3.43;;;1.77;;
13566;SDS011;6855;48.112;11.298;2022-10-16T07:11:15;5.37;;;2.47;;
13566;SDS011;6855;48.112;11.298;2022-10-16T07:13:44;7.53;;;2.43;;
13566;SDS011;6855;48.112;11.298;2022-10-16T07:16:12;2.57;;;2.00;;
13566;SDS011;6855;48.112;11.298;2022-10-16T07:18:40;2.67;;;1.80;;
13566;SDS011;6855;48.112;11.298;2022-10-16T07:21:09;4.03;;;2.23;;
13566;SDS011;6855;48.112;11.298;2022-10-16T07:23:37;7.03;;;2.50;;
13566;SDS011;6855;48.112;11.298;2022-10-16T07:26:04;4.53;;;2.00;;
13566;SDS011;6855;48.112;11.298;2022-10-16T07:28:32;3.20;;;2.53;;
13566;SDS011;6855;48.112;11.298;2022-10-16T07:31:04;6.73;;;2.27;;
13566;SDS011;6855;48.112;11.298;2022-10-16T07:33:32;6.77;;;2.97;;
13566;SDS011;6855;48.112;11.298;2022-10-16T07:35:59;7.37;;;2.57;;
13566;SDS011;6855;48.112;11.298;2022-10-16T07:38:27;2.63;;;2.37;;
13566;SDS011;6855;48.112;11.298;2022-10-16T07:40:57;2.73;;;2.10;;
13566;SDS011;6855;48.112;11.298;2022-10-16T07:43:25;2.23;;;2.03;;
13566;SDS011;6855;48.112;11.298;2022-10-16T07:45:52;2.50;;;2.30;;
13566;SDS011;6855;48.112;11.298;2022-10-16T07:48:21;5.77;;;2.20;;
13566;SDS011;6855;48.112;11.298;2022-10-16T07:50:49;3.90;;;2.00;;
13566;SDS011;6855;48.112;11.298;2022-10-16T07:53:16;2.90;;;1.77;;
13566;SDS011;6855;48.112;11.298;2022-10-16T07:55:43;2.03;;;1.67;;
13566;SDS011;6855;48.112;11.298;2022-10-16T07:58:10;2.90;;;1.67;;
13566;SDS011;6855;48.112;11.298;2022-10-16T08:00:38;2.80;;;1.80;;
13566;SDS011;6855;48.112;11.298;2022-10-16T08:03:05;1.90;;;1.70;;
13566;SDS011;6855;48.112;11.298;2022-10-16T08:05:33;1.80;;;1.53;;
13566;SDS011;6855;48.112;11.298;2022-10-16T08:08:01;2.40;;;1.73;;
13566;SDS011;6855;48.112;11.298;2022-10-16T08:10:28;2.93;;;2.27;;
13566;SDS011;6855;48.112;11.298;2022-10-16T08:12:56;2.83;;;1.93;;
13566;SDS011;6855;48.112;11.298;2022-10-16T08:15:24;3.60;;;2.10;;
13566;SDS011;6855;48.112;11.298;2022-10-16T08:17:55;2.20;;;2.00;;
13566;SDS011;6855;48.112;11.298;2022-10-16T08:20:22;2.37;;;2.17;;
13566;SDS011;6855;48.112;11.298;2022-10-16T08:22:51;1.73;;;1.63;;
13566;SDS011;6855;48.112;11.298;2022-10-16T08:25:19;1.97;;;1.83;;
13566;SDS011;6855;48.112;11.298;2022-10-16T08:27:46;5.80;;;1.57;;
13566;SDS011;6855;48.112;11.298;2022-10-16T08:30:14;1.87;;;1.67;;
13566;SDS011;6855;48.112;11.298;2022-10-16T08:32:41;3.40;;;2.10;;
13566;SDS011;6855;48.112;11.298;2022-10-16T08:35:08;2.33;;;2.13;;
13566;SDS011;6855;48.112;11.298;2022-10-16T08:37:35;1.73;;;1.63;;
13566;SDS011;6855;48.112;11.298;2022-10-16T08:40:05;2.07;;;1.97;;
13566;SDS011;6855;48.112;11.298;2022-10-16T08:42:44;2.80;;;1.80;;
13566;SDS011;6855;48.112;11.298;2022-10-16T08:48:00;3.07;;;1.90;;
13566;SDS011;6855;48.112;11.298;2022-10-16T08:50:31;2.00;;;1.90;;
13566;SDS011;6855;48.112;11.298;2022-10-16T08:52:59;3.20;;;2.00;;
13566;SDS011;6855;48.112;11.298;2022-10-16T08:55:30;2.37;;;2.17;;
13566;SDS011;6855;48.112;11.298;2022-10-16T08:57:58;2.70;;;1.70;;
13566;SDS011;6855;48.112;11.298;2022-10-16T09:00:26;3.77;;;2.43;;
13566;SDS011;6855;48.112;11.298;2022-10-16T09:02:56;2.50;;;2.30;;
13566;SDS011;6855;48.112;11.298;2022-10-16T09:05:39;3.53;;;2.20;;
13566;SDS011;6855;48.112;11.298;2022-10-16T09:08:13;2.30;;;2.10;;
13566;SDS011;6855;48.112;11.298;2022-10-16T09:10:46;2.00;;;1.90;;
13566;SDS011;6855;48.112;11.298;2022-10-16T09:13:20;2.30;;;2.00;;
13566;SDS011;6855;48.112;11.298;2022-10-16T09:15:53;2.10;;;1.90;;
13566;SDS011;6855;48.112;11.298;2022-10-16T09:18:23;2.10;;;2.00;;
13566;SDS011;6855;48.112;11.298;2022-10-16T09:20:51;2.03;;;1.87;;
13566;SDS011;6855;48.112;11.298;2022-10-16T09:23:22;1.80;;;1.70;;
13566;SDS011;6855;48.112;11.298;2022-10-16T09:25:54;3.40;;;2.00;;
13566;SDS011;6855;48.112;11.298;2022-10-16T09:28:21;3.03;;;2.10;;
13566;SDS011;6855;48.112;11.298;2022-10-16T09:30:49;2.30;;;2.10;;
13566;SDS011;6855;48.112;11.298;2022-10-16T09:33:17;3.67;;;2.07;;
13566;SDS011;6855;48.112;11.298;2022-10-16T09:35:45;1.90;;;1.80;;
13566;SDS011;6855;48.112;11.298;2022-10-16T09:38:23;5.90;;;2.07;;
13566;SDS011;6855;48.112;11.298;2022-10-16T09:40:50;1.90;;;1.80;;
13566;SDS011;6855;48.112;11.298;2022-10-16T09:43:23;2.10;;;2.00;;
13566;SDS011;6855;48.112;11.298;2022-10-16T09:45:53;2.60;;;1.80;;
13566;SDS011;6855;48.112;11.298;2022-10-16T09:48:21;2.30;;;2.10;;
13566;SDS011;6855;48.112;11.298;2022-10-16T09:50:55;2.10;;;1.90;;
13566;SDS011;6855;48.112;11.298;2022-10-16T09:53:22;2.10;;;2.00;;
13566;SDS011;6855;48.112;11.298;2022-10-16T09:55:50;2.60;;;1.90;;
13566;SDS011;6855;48.112;11.298;2022-10-16T09:58:17;3.10;;;1.70;;
13566;SDS011;6855;48.112;11.298;2022-10-16T10:00:50;3.70;;;2.10;;
13566;SDS011;6855;48.112;11.298;2022-10-16T10:03:30;1.87;;;1.60;;
13566;SDS011;6855;48.112;11.298;2022-10-16T10:05:58;11.80;;;1.87;;
13566;SDS011;6855;48.112;11.298;2022-10-16T10:08:26;2.67;;;1.87;;
13566;SDS011;6855;48.112;11.298;2022-10-16T10:10:53;4.07;;;1.90;;
13566;SDS011;6855;48.112;11.298;2022-10-16T10:13:21;2.13;;;1.60;;
13566;SDS011;6855;48.112;11.298;2022-10-16T10:15:50;4.60;;;1.60;;
13566;SDS011;6855;48.112;11.298;2022-10-16T10:18:18;1.57;;;1.47;;
13566;SDS011;6855;48.112;11.298;2022-10-16T10:20:56;2.90;;;1.90;;
13566;SDS011;6855;48.112;11.298;2022-10-16T10:23:24;2.90;;;1.80;;
13566;SDS011;6855;48.112;11.298;2022-10-16T10:25:52;1.77;;;1.60;;
13566;SDS011;6855;48.112;11.298;2022-10-16T10:28:32;2.10;;;1.50;;
13566;SDS011;6855;48.112;11.298;2022-10-16T10:31:05;2.50;;;1.57;;
13566;SDS011;6855;48.112;11.298;2022-10-16T10:33:38;3.30;;;1.90;;
13566;SDS011;6855;48.112;11.298;2022-10-16T10:36:12;2.07;;;1.60;;
13566;SDS011;6855;48.112;11.298;2022-10-16T10:38:44;4.00;;;1.60;;
13566;SDS011;6855;48.112;11.298;2022-10-16T10:41:21;1.50;;;1.40;;
13566;SDS011;6855;48.112;11.298;2022-10-16T10:43:54;2.50;;;1.40;;
13566;SDS011;6855;48.112;11.298;2022-10-16T10:49:08;1.27;;;1.20;;
13566;SDS011;6855;48.112;11.298;2022-10-16T10:51:39;1.53;;;1.43;;
13566;SDS011;6855;48.112;11.298;2022-10-16T10:54:13;2.90;;;1.17;;
13566;SDS011;6855;48.112;11.298;2022-10-16T10:56:43;1.30;;;1.20;;
13566;SDS011;6855;48.112;11.298;2022-10-16T10:59:19;1.20;;;1.10;;
13566;SDS011;6855;48.112;11.298;2022-10-16T11:01:53;1.70;;;1.20;;
13566;SDS011;6855;48.112;11.298;2022-10-16T11:07:05;3.17;;;1.20;;
13566;SDS011;6855;48.112;11.298;2022-10-16T11:09:35;1.50;;;1.40;;
13566;SDS011;6855;48.112;11.298;2022-10-16T11:12:05;2.30;;;1.00;;
13566;SDS011;6855;48.112;11.298;2022-10-16T11:14:34;2.60;;;1.30;;
13566;SDS011;6855;48.112;11.298;2022-10-16T11:17:04;1.50;;;1.40;;
13566;SDS011;6855;48.112;11.298;2022-10-16T11:19:35;1.70;;;1.20;;
13566;SDS011;6855;48.112;11.298;2022-10-16T11:22:07;1.37;;;1.20;;
13566;SDS011;6855;48.112;11.298;2022-10-16T11:24:39;1.67;;;1.33;;
13566;SDS011;6855;48.112;11.298;2022-10-16T11:27:09;1.00;;;1.00;;
13566;SDS011;6855;48.112;11.298;2022-10-16T11:29:42;2.03;;;1.13;;
13566;SDS011;6855;48.112;11.298;2022-10-16T11:32:12;2.30;;;1.00;;
13566;SDS011;6855;48.112;11.298;2022-10-16T11:34:41;0.83;;;0.80;;
13566;SDS011;6855;48.112;11.298;2022-10-16T11:37:14;2.93;;;1.03;;
13566;SDS011;6855;48.112;11.298;2022-10-16T11:39:44;1.17;;;1.10;;
13566;SDS011;6855;48.112;11.298;2022-10-16T11:42:13;3.30;;;1.20;;
13566;SDS011;6855;48.112;11.298;2022-10-16T11:44:50;2.20;;;1.00;;
13566;SDS011;6855;48.112;11.298;2022-10-16T11:47:23;1.13;;;1.03;;
13566;SDS011;6855;48.112;11.298;2022-10-16T11:49:52;1.03;;;1.00;;
13566;SDS011;6855;48.112;11.298;2022-10-16T11:52:22;0.97;;;0.97;;
13566;SDS011;6855;48.112;11.298;2022-10-16T11:54:53;2.50;;;1.10;;
13566;SDS011;6855;48.112;11.298;2022-10-16T11:57:21;1.33;;;1.03;;
13566;SDS011;6855;48.112;11.298;2022-10-16T11:59:51;1.40;;;1.00;;
13566;SDS011;6855;48.112;11.298;2022-10-16T12:02:27;1.50;;;1.40;;
13566;SDS011;6855;48.112;11.298;2022-10-16T12:04:57;1.73;;;1.20;;
13566;SDS011;6855;48.112;11.298;2022-10-16T12:07:32;2.20;;;1.10;;
13566;SDS011;6855;48.112;11.298;2022-10-16T12:10:09;0.90;;;0.90;;
13566;SDS011;6855;48.112;11.298;2022-10-16T12:12:38;1.20;;;1.20;;
13566;SDS011;6855;48.112;11.298;2022-10-16T12:15:17;1.40;;;1.30;;
13566;SDS011;6855;48.112;11.298;2022-10-16T12:17:45;1.63;;;1.20;;
13566;SDS011;6855;48.112;11.298;2022-10-16T12:20:18;1.30;;;1.20;;
13566;SDS011;6855;48.112;11.298;2022-10-16T12:22:49;1.57;;;1.47;;
13566;SDS011;6855;48.112;11.298;2022-10-16T12:25:20;1.20;;;1.20;;
13566;SDS011;6855;48.112;11.298;2022-10-16T12:27:53;1.20;;;1.20;;
13566;SDS011;6855;48.112;11.298;2022-10-16T12:30:22;1.60;;;1.50;;
13566;SDS011;6855;48.112;11.298;2022-10-16T12:32:53;1.53;;;1.40;;
13566;SDS011;6855;48.112;11.298;2022-10-16T12:35:21;1.50;;;1.40;;
13566;SDS011;6855;48.112;11.298;2022-10-16T12:37:49;2.17;;;1.50;;
13566;SDS011;6855;48.112;11.298;2022-10-16T12:40:24;1.50;;;1.40;;
13566;SDS011;6855;48.112;11.298;2022-10-16T12:42:51;2.03;;;1.83;;
13566;SDS011;6855;48.112;11.298;2022-10-16T12:45:24;1.87;;;1.77;;
13566;SDS011;6855;48.112;11.298;2022-10-16T12:47:52;2.03;;;1.93;;
13566;SDS011;6855;48.112;11.298;2022-10-16T12:50:23;6.63;;;1.73;;
13566;SDS011;6855;48.112;11.298;2022-10-16T12:52:52;2.50;;;2.00;;
13566;SDS011;6855;48.112;11.298;2022-10-16T12:55:20;1.83;;;1.73;;
13566;SDS011;6855;48.112;11.298;2022-10-16T12:57:55;2.57;;;2.37;;
13566;SDS011;6855;48.112;11.298;2022-10-16T13:00:26;2.93;;;1.80;;
13566;SDS011;6855;48.112;11.298;2022-10-16T13:03:20;2.10;;;1.60;;
13566;SDS011;6855;48.112;11.298;2022-10-16T13:05:52;1.40;;;1.30;;
13566;SDS011;6855;48.112;11.298;2022-10-16T13:08:36;1.93;;;1.30;;
13566;SDS011;6855;48.112;11.298;2022-10-16T13:11:11;2.87;;;1.50;;
13566;SDS011;6855;48.112;11.298;2022-10-16T13:13:51;2.37;;;1.37;;
13566;SDS011;6855;48.112;11.298;2022-10-16T13:16:23;1.50;;;1.40;;
13566;SDS011;6855;48.112;11.298;2022-10-16T13:18:56;1.30;;;1.20;;
13566;SDS011;6855;48.112;11.298;2022-10-16T13:21:33;2.50;;;1.40;;
13566;SDS011;6855;48.112;11.298;2022-10-16T13:24:05;1.60;;;1.23;;
13566;SDS011;6855;48.112;11.298;2022-10-16T13:26:37;2.60;;;1.20;;
13566;SDS011;6855;48.112;11.298;2022-10-16T13:29:06;1.37;;;1.10;;
13566;SDS011;6855;48.112;11.298;2022-10-16T13:31:36;1.70;;;1.60;;
13566;SDS011;6855;48.112;11.298;2022-10-16T13:34:04;16.63;;;1.93;;
13566;SDS011;6855;48.112;11.298;2022-10-16T13:36:34;2.80;;;1.40;;
13566;SDS011;6855;48.112;11.298;2022-10-16T13:39:10;1.43;;;1.30;;
13566;SDS011;6855;48.112;11.298;2022-10-16T13:41:38;2.90;;;1.30;;
13566;SDS011;6855;48.112;11.298;2022-10-16T13:44:08;3.17;;;1.30;;
13566;SDS011;6855;48.112;11.298;2022-10-16T13:46:38;1.60;;;1.50;;
13566;SDS011;6855;48.112;11.298;2022-10-16T13:49:10;1.40;;;1.30;;
13566;SDS011;6855;48.112;11.298;2022-10-16T13:51:38;1.33;;;1.23;;
13566;SDS011;6855;48.112;11.298;2022-10-16T13:54:07;2.80;;;1.60;;
13566;SDS011;6855;48.112;11.298;2022-10-16T13:56:38;4.43;;;1.20;;
13566;SDS011;6855;48.112;11.298;2022-10-16T13:59:06;1.43;;;1.17;;
13566;SDS011;6855;48.112;11.298;2022-10-16T14:01:33;3.10;;;1.50;;
13566;SDS011;6855;48.112;11.298;2022-10-16T14:04:02;2.90;;;1.40;;
13566;SDS011;6855;48.112;11.298;2022-10-16T14:06:31;1.60;;;1.33;;
13566;SDS011;6855;48.112;11.298;2022-10-16T14:08:59;1.33;;;1.30;;
13566;SDS011;6855;48.112;11.298;2022-10-16T14:11:27;1.33;;;1.23;;
13566;SDS011;6855;48.112;11.298;2022-10-16T14:13:56;1.40;;;1.30;;
13566;SDS011;6855;48.112;11.298;2022-10-16T14:16:25;1.10;;;1.10;;
13566;SDS011;6855;48.112;11.298;2022-10-16T14:18:55;1.40;;;1.30;;
13566;SDS011;6855;48.112;11.298;2022-10-16T14:21:23;3.23;;;1.30;;
13566;SDS011;6855;48.112;11.298;2022-10-16T14:23:51;1.40;;;1.30;;
13566;SDS011;6855;48.112;11.298;2022-10-16T14:26:19;1.60;;;1.50;;
13566;SDS011;6855;48.112;11.298;2022-10-16T14:28:47;1.47;;;1.30;;
13566;SDS011;6855;48.112;11.298;2022-10-16T14:31:26;3.63;;;1.37;;
13566;SDS011;6855;48.112;11.298;2022-10-16T14:33:54;1.63;;;1.50;;
13566;SDS011;6855;48.112;11.298;2022-10-16T14:36:21;5.47;;;1.33;;
13566;SDS011;6855;48.112;11.298;2022-10-16T14:38:50;2.00;;;1.80;;
13566;SDS011;6855;48.112;11.298;2022-10-16T14:41:20;1.30;;;1.20;;
13566;SDS011;6855;48.112;11.298;2022-10-16T14:43:49;1.70;;;1.60;;
13566;SDS011;6855;48.112;11.298;2022-10-16T14:46:18;1.60;;;1.50;;
13566;SDS011;6855;48.112;11.298;2022-10-16T14:48:47;2.30;;;1.37;;
13566;SDS011;6855;48.112;11.298;2022-10-16T14:51:16;2.40;;;1.60;;
13566;SDS011;6855;48.112;11.298;2022-10-16T14:53:43;1.63;;;1.40;;
13566;SDS011;6855;48.112;11.298;2022-10-16T14:56:14;1.40;;;1.30;;
13566;SDS011;6855;48.112;11.298;2022-10-16T14:58:42;2.97;;;1.77;;
13566;SDS011;6855;48.112;11.298;2022-10-16T15:01:10;1.73;;;1.50;;
13566;SDS011;6855;48.112;11.298;2022-10-16T15:03:37;3.27;;;1.77;;
13566;SDS011;6855;48.112;11.298;2022-10-16T15:06:09;3.13;;;1.83;;
13566;SDS011;6855;48.112;11.298;2022-10-16T15:08:36;5.00;;;1.60;;